Time;durP1;ratioP1;P1;durP2;ratioP2;P2;SDS_P1;SDS_P2;PMS_P1;PMS_P2;Temp;Humidity;BMP_temperature;BMP_pressure;BME280_temperature;BME280_humidity;BME280_pressure;Samples;Min_cycle;Max_cycle;Signal;HPM_P1;HPM_P2
2021/11/12 00:13:39;;;;;;;1.40;1.20;;;19.30;70.70;;;;;;5104582;28;20046;-37
2021/11/12 00:16:06;;;;;;;1.60;1.50;;;19.30;70.70;;;;;;5104784;28;20016;-37
2021/11/12 00:18:33;;;;;;;2.30;1.77;;;19.30;70.70;;;;;;5104102;28;20054;-37
2021/11/12 00:21:00;;;;;;;1.48;1.38;;;19.30;70.70;;;;;;5104751;28;20024;-37
2021/11/12 00:23:27;;;;;;;1.30;1.13;;;19.30;70.60;;;;;;5104405;28;20024;-37
2021/11/12 00:25:53;;;;;;;1.80;1.50;;;19.30;70.60;;;;;;5102919;28;20053;-37
2021/11/12 00:28:22;;;;;;;1.40;1.30;;;19.30;70.60;;;;;;5104462;28;20087;-37
2021/11/12 00:38:29;;;;;;;1.42;1.33;;;19.30;70.60;;;;;;5102899;28;20058;-37
2021/11/12 00:40:59;;;;;;;1.45;1.35;;;19.30;70.60;;;;;;5102953;28;20051;-37
2021/11/12 00:43:38;;;;;;;1.40;1.30;;;19.30;70.50;;;;;;5103971;28;20035;-37
2021/11/12 00:48:43;;;;;;;1.27;1.17;;;19.30;70.50;;;;;;5102809;28;20035;-37
2021/11/12 00:51:30;;;;;;;1.85;1.50;;;19.30;70.50;;;;;;5104114;28;20082;-37
2021/11/12 00:56:26;;;;;;;1.35;1.23;;;19.30;70.30;;;;;;5102733;28;20028;-37
2021/11/12 00:58:54;;;;;;;1.40;1.30;;;19.20;70.30;;;;;;5103804;28;20028;-37
2021/11/12 01:01:21;;;;;;;1.60;1.40;;;19.30;70.30;;;;;;5102358;28;20024;-37
2021/11/12 01:03:48;;;;;;;1.40;1.30;;;19.30;70.30;;;;;;5103500;28;20804;-37
2021/11/12 01:06:14;;;;;;;1.58;1.48;;;19.30;70.30;;;;;;5102925;28;20145;-37
2021/11/12 01:08:41;;;;;;;1.77;1.47;;;19.30;70.40;;;;;;5092304;28;20024;-39
2021/11/12 01:11:07;;;;;;;1.50;1.40;;;19.30;70.30;;;;;;5083332;28;20025;-37
2021/11/12 01:13:35;;;;;;;1.40;1.30;;;19.30;70.30;;;;;;5083120;28;20024;-37
2021/11/12 01:16:03;;;;;;;1.40;1.30;;;19.30;70.30;;;;;;5083225;28;20032;-37
2021/11/12 01:18:29;;;;;;;1.25;1.15;;;19.30;70.20;;;;;;5117097;28;20034;-37
2021/11/12 01:20:55;;;;;;;1.33;1.23;;;19.30;70.30;;;;;;5103422;28;20028;-37
2021/11/12 01:23:22;;;;;;;1.42;1.33;;;19.20;70.20;;;;;;5101884;28;20183;-37
2021/11/12 01:25:48;;;;;;;1.50;1.38;;;19.30;70.20;;;;;;5103499;28;20392;-37
2021/11/12 01:28:14;;;;;;;1.35;1.25;;;19.30;70.10;;;;;;5103156;28;20043;-37
2021/11/12 01:30:40;;;;;;;1.95;1.20;;;19.30;70.10;;;;;;5100107;28;20016;-36
2021/11/12 01:33:06;;;;;;;1.67;1.30;;;19.30;70.10;;;;;;5082044;28;20063;-37
2021/11/12 01:35:33;;;;;;;1.20;1.10;;;19.30;70.10;;;;;;5082906;28;20551;-37
2021/11/12 01:38:01;;;;;;;1.25;1.15;;;19.30;70.00;;;;;;5082980;28;20056;-37
2021/11/12 01:40:28;;;;;;;1.80;1.33;;;19.20;70.10;;;;;;5083124;28;20040;-36
2021/11/12 01:43:17;;;;;;;1.63;1.30;;;19.30;70.90;;;;;;5081322;28;20113;-37
2021/11/12 01:53:28;;;;;;;1.10;1.00;;;19.20;70.10;;;;;;5102767;28;20021;-37
2021/11/12 01:56:12;;;;;;;1.50;1.20;;;19.20;70.10;;;;;;5102979;28;20020;-37
2021/11/12 02:01:05;;;;;;;1.63;1.40;;;19.20;70.10;;;;;;5100762;28;20054;-36
2021/11/12 02:03:31;;;;;;;1.38;1.15;;;19.20;70.00;;;;;;5080736;28;20033;-37
2021/11/12 02:05:57;;;;;;;1.50;1.25;;;19.20;70.00;;;;;;5082461;28;20472;-37
2021/11/12 02:08:23;;;;;;;1.83;1.23;;;19.20;70.00;;;;;;5083320;28;20043;-37
2021/11/12 02:10:50;;;;;;;1.27;1.17;;;19.20;70.00;;;;;;5082345;28;20025;-37
2021/11/12 02:13:18;;;;;;;1.63;1.05;;;19.20;70.00;;;;;;5082430;28;20067;-37
2021/11/12 02:15:45;;;;;;;2.15;1.27;;;19.20;70.00;;;;;;5081031;28;20087;-37
2021/11/12 02:18:27;;;;;;;1.75;1.42;;;19.20;70.00;;;;;;5097381;28;20095;-37
2021/11/12 02:20:59;;;;;;;1.88;1.15;;;19.20;70.00;;;;;;5102657;28;20040;-37
2021/11/12 02:23:35;;;;;;;1.50;1.08;;;19.20;70.00;;;;;;5102519;28;20100;-37
2021/11/12 02:26:02;;;;;;;1.40;1.10;;;19.20;70.00;;;;;;5102487;28;20042;-37
2021/11/12 02:28:29;;;;;;;1.52;0.93;;;19.20;70.00;;;;;;5102597;28;20024;-37
2021/11/12 02:30:55;;;;;;;1.40;1.20;;;19.20;70.00;;;;;;5102205;28;20020;-37
2021/11/12 02:33:23;;;;;;;1.10;1.00;;;19.20;70.00;;;;;;5102266;28;20093;-37
2021/11/12 02:36:01;;;;;;;1.60;1.50;;;19.20;70.80;;;;;;5102667;28;20035;-37
2021/11/12 02:38:29;;;;;;;2.03;1.13;;;19.20;70.00;;;;;;5092032;28;20036;-37
2021/11/12 02:40:56;;;;;;;2.92;1.20;;;19.20;70.00;;;;;;5082283;28;20469;-37
2021/11/12 02:43:23;;;;;;;1.35;1.25;;;19.20;70.00;;;;;;5082062;28;20123;-37
2021/11/12 02:45:50;;;;;;;1.63;1.27;;;19.20;70.00;;;;;;5097539;28;20048;-37
2021/11/12 02:48:17;;;;;;;1.20;1.10;;;19.20;70.00;;;;;;5098620;28;20020;-37
2021/11/12 02:50:43;;;;;;;1.50;1.27;;;19.20;70.00;;;;;;5102397;28;20051;-37
2021/11/12 02:53:13;;;;;;;1.17;1.08;;;19.20;70.00;;;;;;5102624;28;20054;-37
2021/11/12 02:55:40;;;;;;;1.95;1.02;;;19.20;70.00;;;;;;5102126;28;20066;-37
2021/11/12 02:58:06;;;;;;;1.65;1.23;;;19.20;70.00;;;;;;5100879;28;20043;-37
2021/11/12 03:00:33;;;;;;;1.55;1.13;;;19.20;70.00;;;;;;5102354;28;20035;-37
2021/11/12 03:03:00;;;;;;;1.63;1.10;;;19.20;70.00;;;;;;5100820;28;20017;-37
2021/11/12 03:05:26;;;;;;;1.30;1.20;;;19.10;69.90;;;;;;5101936;28;20665;-37
2021/11/12 03:07:53;;;;;;;2.45;1.05;;;19.10;69.90;;;;;;5101429;28;20054;-37
2021/11/12 03:10:19;;;;;;;1.23;0.90;;;19.10;70.00;;;;;;5102231;28;20024;-37
2021/11/12 03:12:45;;;;;;;1.10;1.00;;;19.10;69.90;;;;;;5102356;28;20039;-37
2021/11/12 03:15:11;;;;;;;1.55;1.10;;;19.10;70.70;;;;;;5101986;28;20481;-37
2021/11/12 03:17:38;;;;;;;1.27;1.03;;;19.10;69.90;;;;;;5100040;28;20066;-37
2021/11/12 03:20:06;;;;;;;1.88;1.20;;;19.10;69.90;;;;;;5101989;28;20268;-37
2021/11/12 03:22:38;;;;;;;1.50;1.10;;;19.10;69.90;;;;;;5100763;28;20040;-38
2021/11/12 03:25:11;;;;;;;2.08;1.00;;;19.10;69.80;;;;;;5101919;28;20088;-37
2021/11/12 03:28:03;;;;;;;1.52;1.10;;;19.10;69.80;;;;;;5101936;28;20040;-37
2021/11/12 03:56:31;;;;;;;1.42;0.90;;;19.00;69.80;;;;;;5105012;28;20127;-37
2021/11/12 04:00:54;;;;;;;1.25;1.08;;;19.00;69.90;;;;;;5104004;28;20058;-37
2021/11/12 04:06:26;;;;;;;1.55;1.02;;;19.00;69.90;;;;;;5083240;28;20064;-37
2021/11/12 04:17:24;;;;;;;1.48;0.88;;;19.00;69.80;;;;;;5104355;28;20035;-37
2021/11/12 05:44:42;;;;;;;1.02;0.68;;;18.70;69.90;;;;;;5102976;28;20089;-37
2021/11/12 05:49:55;;;;;;;1.08;0.90;;;18.70;69.90;;;;;;5102917;28;20543;-37
2021/11/12 05:55:04;;;;;;;1.30;0.88;;;18.70;69.90;;;;;;5102840;28;20028;-37
2021/11/12 05:55:11;;;;;;;0.80;0.80;;;18.70;70.00;;;;;;5103002;28;20608;-37
2021/11/12 05:57:38;;;;;;;1.42;0.77;;;18.70;70.00;;;;;;5102650;28;20055;-37
2021/11/12 06:00:08;;;;;;;1.30;0.70;;;18.70;70.00;;;;;;5102998;28;20024;-37
2021/11/12 06:02:34;;;;;;;1.45;0.80;;;18.70;70.00;;;;;;5102700;28;20031;-37
2021/11/12 06:05:00;;;;;;;2.20;0.80;;;18.70;70.00;;;;;;5102686;28;20032;-37
2021/11/12 06:07:28;;;;;;;0.80;0.60;;;18.70;70.00;;;;;;5101393;28;20101;-37
2021/11/12 06:09:55;;;;;;;1.52;0.70;;;18.70;70.00;;;;;;5082636;28;20028;-37
2021/11/12 06:12:21;;;;;;;;;;;18.70;70.00;;;;;;5083020;28;20028;-37
2021/11/12 06:14:47;;;;;;;0.88;0.70;;;18.60;69.90;;;;;;5082572;28;19962;-37
2021/11/12 06:17:13;;;;;;;1.13;0.82;;;18.60;70.00;;;;;;5090040;28;20016;-37
2021/11/12 06:19:40;;;;;;;2.50;0.88;;;18.60;70.00;;;;;;5102818;28;20020;-37
2021/11/12 06:22:06;;;;;;;0.80;0.80;;;18.60;70.00;;;;;;5102659;28;20024;-37
2021/11/12 06:24:32;;;;;;;1.20;0.90;;;18.60;70.10;;;;;;5102732;28;20397;-37
2021/11/12 06:26:59;;;;;;;1.83;0.53;;;18.60;70.10;;;;;;5101906;28;20036;-37
2021/11/12 06:29:25;;;;;;;0.63;0.63;;;18.60;70.10;;;;;;5102623;28;20035;-37
2021/11/12 06:31:51;;;;;;;0.70;0.65;;;18.60;70.10;;;;;;5102595;28;20028;-37
2021/11/12 06:34:17;;;;;;;1.77;0.80;;;18.60;70.90;;;;;;5102492;28;20024;-39
2021/11/12 06:36:44;;;;;;;1.50;0.80;;;18.60;70.20;;;;;;5102262;28;20024;-37
2021/11/12 06:39:11;;;;;;;0.82;0.55;;;18.50;70.10;;;;;;5102130;28;20021;-37
2021/11/12 06:49:48;;;;;;;0.90;0.65;;;18.50;70.20;;;;;;5102370;28;20032;-37
2021/11/12 06:52:16;;;;;;;0.80;0.65;;;18.50;70.20;;;;;;5102462;28;20077;-37
2021/11/12 06:54:45;;;;;;;0.70;0.60;;;18.50;70.20;;;;;;5100991;28;20028;-37
2021/11/12 06:57:13;;;;;;;3.47;0.70;;;18.40;70.10;;;;;;5102147;28;20108;-38
2021/11/12 06:59:39;;;;;;;1.38;0.80;;;18.40;70.20;;;;;;5102440;28;20051;-37
2021/11/12 07:02:07;;;;;;;1.27;0.90;;;18.50;70.30;;;;;;5086089;28;20089;-37
2021/11/12 07:04:33;;;;;;;1.25;0.70;;;18.40;70.30;;;;;;5081770;28;20564;-37
2021/11/12 07:07:00;;;;;;;0.90;0.70;;;18.40;70.20;;;;;;5085529;28;20070;-37
2021/11/12 07:09:27;;;;;;;1.33;0.75;;;18.40;70.30;;;;;;5102173;28;20035;-37
2021/11/12 07:11:53;;;;;;;0.93;0.70;;;18.40;70.30;;;;;;5106185;28;20032;-37
2021/11/12 07:14:19;;;;;;;2.28;0.60;;;18.40;70.30;;;;;;5106137;28;20027;-37
2021/11/12 07:16:45;;;;;;;0.70;0.70;;;18.40;70.30;;;;;;5104104;28;20027;-37
2021/11/12 07:19:11;;;;;;;1.13;0.70;;;18.30;70.30;;;;;;5105483;28;20047;-37
2021/11/12 07:21:39;;;;;;;0.93;0.60;;;18.30;70.30;;;;;;5105804;28;20016;-37
2021/11/12 07:24:05;;;;;;;1.15;0.80;;;18.30;70.30;;;;;;5105874;28;20047;-37
2021/11/12 07:26:32;;;;;;;1.55;0.75;;;18.30;70.30;;;;;;5105652;28;20027;-37
2021/11/12 07:28:59;;;;;;;0.70;0.68;;;18.30;70.30;;;;;;5105614;28;20024;-37
2021/11/12 07:31:25;;;;;;;1.35;0.40;;;18.30;70.30;;;;;;5095686;28;20703;-37
2021/11/12 07:33:54;;;;;;;0.50;0.50;;;18.30;70.30;;;;;;5105622;28;20541;-37
2021/11/12 07:36:24;;;;;;;0.70;0.60;;;18.20;70.30;;;;;;5105585;28;20036;-37
2021/11/12 07:38:59;;;;;;;3.03;0.80;;;18.20;70.30;;;;;;5105016;28;20095;-37
2021/11/12 07:41:42;;;;;;;1.75;0.70;;;18.20;70.30;;;;;;5105528;28;20052;-37
2021/11/12 07:46:43;;;;;;;1.80;0.70;;;18.20;70.50;;;;;;5104885;28;20115;-37
2021/11/12 07:49:11;;;;;;;0.85;0.70;;;18.20;70.40;;;;;;5104930;28;20144;-37
2021/11/12 07:51:38;;;;;;;0.82;0.60;;;18.20;70.40;;;;;;5105397;28;20030;-37
2021/11/12 07:54:05;;;;;;;1.30;0.75;;;18.20;70.50;;;;;;5105389;28;20024;-37
2021/11/12 07:56:31;;;;;;;0.80;0.80;;;18.10;70.40;;;;;;5105396;28;20136;-40
2021/11/12 07:58:57;;;;;;;1.97;0.67;;;18.10;70.40;;;;;;5105104;28;20028;-37
2021/11/12 08:01:25;;;;;;;0.95;0.80;;;18.10;70.50;;;;;;5105198;28;20342;-37
2021/11/12 08:03:54;;;;;;;0.57;0.50;;;18.10;70.50;;;;;;5103630;28;20025;-37
2021/11/12 08:06:21;;;;;;;0.98;0.70;;;18.10;70.60;;;;;;5105094;28;20493;-37
2021/11/12 08:08:54;;;;;;;1.30;0.70;;;18.10;70.50;;;;;;5103656;28;20052;-37
2021/11/12 08:11:29;;;;;;;0.63;0.60;;;18.10;70.50;;;;;;5103845;28;20052;-37
2021/11/12 08:14:15;;;;;;;0.90;0.60;;;18.10;70.50;;;;;;5103462;28;20031;-37
2021/11/12 08:19:35;;;;;;;0.88;0.75;;;18.00;70.60;;;;;;5104459;28;20031;-37
2021/11/12 08:22:09;;;;;;;1.35;0.70;;;18.00;70.50;;;;;;5104517;28;20020;-37
2021/11/12 08:35:27;;;;;;;0.80;0.70;;;17.90;70.60;;;;;;5104606;28;20043;-37
2021/11/12 08:38:17;;;;;;;0.65;0.50;;;17.90;70.60;;;;;;5100596;28;20052;-37
2021/11/12 08:40:55;;;;;;;1.02;0.57;;;17.90;70.70;;;;;;5084222;28;20032;-37
2021/11/12 08:43:48;;;;;;;1.10;0.60;;;17.90;70.70;;;;;;5084054;28;20044;-37
2021/11/12 08:46:15;;;;;;;1.38;0.90;;;17.90;70.70;;;;;;5083814;28;20105;-37
2021/11/12 08:49:02;;;;;;;0.60;0.50;;;17.90;70.70;;;;;;5103162;28;20079;-37
2021/11/12 08:51:39;;;;;;;1.40;0.70;;;17.90;70.70;;;;;;5104102;28;20040;-37
2021/11/12 08:54:06;;;;;;;1.60;0.60;;;17.80;70.60;;;;;;5104352;28;20484;-37
2021/11/12 08:56:32;;;;;;;0.70;0.70;;;17.80;70.70;;;;;;5104134;28;20028;-37
2021/11/12 08:58:58;;;;;;;1.15;0.73;;;17.80;70.60;;;;;;5104098;28;20119;-38
2021/11/12 09:01:25;;;;;;;1.00;0.90;;;17.80;70.60;;;;;;5104159;28;20421;-37
2021/11/12 09:03:54;;;;;;;0.73;0.73;;;17.80;70.60;;;;;;5103798;28;20042;-37
2021/11/12 09:06:20;;;;;;;1.55;0.60;;;17.80;70.80;;;;;;5102422;28;20050;-37
2021/11/12 09:08:47;;;;;;;0.55;0.55;;;17.80;70.70;;;;;;5102638;28;20108;-37
2021/11/12 09:11:13;;;;;;;0.70;0.70;;;17.70;70.70;;;;;;5103761;28;20028;-37
2021/11/12 09:13:47;;;;;;;1.38;0.73;;;17.70;70.70;;;;;;5103929;28;20061;-37
2021/11/12 09:16:15;;;;;;;0.95;0.70;;;17.70;70.70;;;;;;5103857;28;20052;-37
2021/11/12 09:18:43;;;;;;;1.38;0.90;;;17.70;70.70;;;;;;5102989;28;20028;-37
2021/11/12 09:21:10;;;;;;;0.73;0.70;;;17.70;70.70;;;;;;5102167;28;20020;-37
2021/11/12 09:23:36;;;;;;;0.63;0.63;;;17.70;70.80;;;;;;5102296;28;20048;-37
2021/11/12 09:26:03;;;;;;;0.90;0.57;;;17.70;70.70;;;;;;5096835;28;20033;-37
2021/11/12 09:28:32;;;;;;;0.80;0.80;;;17.60;70.80;;;;;;5082617;28;20110;-37
2021/11/12 09:30:58;;;;;;;1.40;0.60;;;17.60;70.80;;;;;;5083994;28;20063;-37
2021/11/12 09:33:24;;;;;;;1.67;0.82;;;17.60;70.80;;;;;;5103243;28;20149;-37
2021/11/12 09:35:50;;;;;;;1.05;0.75;;;17.60;70.80;;;;;;5103430;28;20030;-37
2021/11/12 09:38:17;;;;;;;2.22;0.80;;;17.60;70.80;;;;;;5096376;28;20028;-37
2021/11/12 09:40:43;;;;;;;0.80;0.80;;;17.60;70.80;;;;;;5082631;28;20048;-37
2021/11/12 09:43:09;;;;;;;0.80;0.80;;;17.60;70.80;;;;;;5083135;28;20025;-37
2021/11/12 09:45:35;;;;;;;0.95;0.60;;;17.60;70.80;;;;;;5081794;28;20410;-37
2021/11/12 09:48:01;;;;;;;0.60;0.60;;;17.50;70.80;;;;;;5097184;28;20050;-37
2021/11/12 09:50:30;;;;;;;0.57;0.57;;;17.50;70.80;;;;;;5101828;28;20028;-37
2021/11/12 09:52:57;;;;;;;2.50;0.85;;;17.50;70.80;;;;;;5101827;28;20097;-37
2021/11/12 09:55:23;;;;;;;1.40;0.90;;;17.50;70.90;;;;;;5102088;28;20024;-37
2021/11/12 09:57:50;;;;;;;0.77;0.68;;;17.50;70.90;;;;;;5101705;28;20039;-37
2021/11/12 10:00:20;;;;;;;2.80;0.80;;;17.50;70.90;;;;;;5103010;28;20086;-37
2021/11/12 10:02:48;;;;;;;1.00;0.60;;;17.50;70.90;;;;;;5103081;28;20044;-37
2021/11/12 10:05:16;;;;;;;0.70;0.70;;;17.50;71.00;;;;;;5101383;28;20040;-37
2021/11/12 10:07:42;;;;;;;2.53;0.73;;;17.40;70.90;;;;;;5101733;28;20045;-37
2021/11/12 10:10:13;;;;;;;1.10;0.70;;;17.40;70.90;;;;;;5102551;28;20028;-37
2021/11/12 10:12:44;;;;;;;0.82;0.82;;;17.40;71.00;;;;;;5102918;28;20024;-37
2021/11/12 10:15:14;;;;;;;2.13;0.70;;;17.40;71.00;;;;;;5102504;28;20044;-37
2021/11/12 10:17:41;;;;;;;1.08;0.98;;;17.40;71.00;;;;;;5101426;28;20020;-37
2021/11/12 10:20:10;;;;;;;1.58;0.80;;;17.40;71.00;;;;;;5102480;28;20055;-37
2021/11/12 10:22:38;;;;;;;2.40;0.70;;;17.40;71.00;;;;;;5102902;28;20035;-37
2021/11/12 10:25:06;;;;;;;0.80;0.80;;;17.30;71.00;;;;;;5102968;28;20416;-37
2021/11/12 10:27:33;;;;;;;0.82;0.60;;;17.30;71.00;;;;;;5102710;28;20040;-37
2021/11/12 10:30:11;;;;;;;2.80;0.80;;;17.30;71.00;;;;;;5101189;28;20048;-37
2021/11/12 10:32:38;;;;;;;1.95;0.85;;;17.30;71.00;;;;;;5103057;28;20484;-37
2021/11/12 10:35:17;;;;;;;0.70;0.70;;;17.30;71.00;;;;;;5102658;28;20032;-37
2021/11/12 10:37:44;;;;;;;0.68;0.60;;;17.30;71.00;;;;;;5101543;28;20076;-37
2021/11/12 10:40:16;;;;;;;2.78;0.60;;;17.30;71.10;;;;;;5105292;28;20024;-37
2021/11/12 10:42:47;;;;;;;1.30;0.80;;;17.30;71.10;;;;;;5106802;28;20040;-37
2021/11/12 10:45:21;;;;;;;0.82;0.70;;;17.20;71.00;;;;;;5106653;28;20020;-37
2021/11/12 10:47:52;;;;;;;1.95;0.95;;;17.20;71.10;;;;;;5106602;28;20028;-37
2021/11/12 10:50:19;;;;;;;1.95;1.00;;;17.20;71.10;;;;;;5106236;28;20104;-37
2021/11/12 10:52:46;;;;;;;0.93;0.73;;;17.20;71.10;;;;;;5105226;28;20113;-37
2021/11/12 10:55:16;;;;;;;0.80;0.80;;;17.20;71.20;;;;;;5106573;28;20080;-37
2021/11/12 10:57:49;;;;;;;0.73;0.52;;;17.20;71.20;;;;;;5106444;28;20176;-37
2021/11/12 11:00:18;;;;;;;1.17;0.85;;;17.10;71.10;;;;;;5106560;28;20044;-38
2021/11/12 11:02:56;;;;;;;0.88;0.70;;;17.10;71.20;;;;;;5106447;28;20139;-37
2021/11/12 11:05:34;;;;;;;1.00;0.80;;;17.10;71.20;;;;;;5106076;28;20126;-37
2021/11/12 11:08:05;;;;;;;0.80;0.80;;;17.10;71.20;;;;;;5105014;28;20040;-37
2021/11/12 11:10:39;;;;;;;1.05;0.70;;;17.10;71.20;;;;;;5106175;28;20147;-37
2021/11/12 11:13:10;;;;;;;0.73;0.70;;;17.10;71.20;;;;;;5106312;28;20035;-37
2021/11/12 11:15:41;;;;;;;1.42;0.80;;;17.10;71.20;;;;;;5106195;28;20024;-37
2021/11/12 11:21:00;;;;;;;0.90;0.80;;;17.10;71.20;;;;;;5105982;28;20024;-37
2021/11/12 11:23:27;;;;;;;1.00;0.70;;;17.00;71.20;;;;;;5106098;28;20031;-37
2021/11/12 11:26:03;;;;;;;;;;;17.00;71.20;;;;;;5106332;28;20054;-37
2021/11/12 11:28:30;;;;;;;1.20;0.75;;;17.00;71.30;;;;;;5102640;28;19962;-37
2021/11/12 11:30:59;;;;;;;0.80;0.70;;;17.00;71.30;;;;;;5086188;28;20021;-37
2021/11/12 11:33:25;;;;;;;1.67;0.95;;;17.00;71.40;;;;;;5105673;28;20036;-37
2021/11/12 11:35:55;;;;;;;1.65;0.73;;;16.90;71.40;;;;;;5105736;28;20021;-37
2021/11/12 11:38:22;;;;;;;3.58;1.20;;;16.90;71.30;;;;;;5104984;28;20065;-37
2021/11/12 11:40:48;;;;;;;0.77;0.77;;;16.90;71.40;;;;;;5104326;28;20028;-37
2021/11/12 11:43:15;;;;;;;1.00;0.80;;;16.90;71.40;;;;;;5104061;28;20028;-37
2021/11/12 11:45:46;;;;;;;1.83;0.88;;;16.90;71.40;;;;;;5105759;28;20061;-37
2021/11/12 11:48:13;;;;;;;0.57;0.57;;;16.90;72.10;;;;;;5105543;28;20040;-37
2021/11/12 11:50:39;;;;;;;;;;;16.90;71.50;;;;;;5105020;28;20020;-37
2021/11/12 11:53:27;;;;;;;0.70;0.70;;;16.90;71.40;;;;;;5105257;28;19915;-37
2021/11/12 11:56:26;;;;;;;0.70;0.70;;;16.80;71.40;;;;;;5105330;28;20024;-37
2021/11/12 11:59:10;;;;;;;0.70;0.70;;;16.80;71.40;;;;;;5105488;28;20253;-37
2021/11/12 12:01:50;;;;;;;0.82;0.80;;;16.80;71.50;;;;;;5105130;28;20031;-37
2021/11/12 12:04:16;;;;;;;3.50;0.73;;;16.80;71.40;;;;;;5103508;28;20028;-37
2021/11/12 12:07:01;;;;;;;1.52;0.90;;;16.80;71.50;;;;;;5104940;28;20059;-37
2021/11/12 12:09:59;;;;;;;0.80;0.70;;;16.70;71.40;;;;;;5087949;28;20084;-37
2021/11/12 12:12:31;;;;;;;1.55;0.80;;;16.70;71.50;;;;;;5084735;28;20062;-37
2021/11/12 12:15:12;;;;;;;0.90;0.80;;;16.70;71.50;;;;;;5084771;28;20115;-37
2021/11/12 12:17:39;;;;;;;1.40;0.82;;;16.70;71.50;;;;;;5101922;28;20031;-37
2021/11/12 12:20:24;;;;;;;0.95;0.80;;;16.70;71.60;;;;;;5104696;28;20125;-37
2021/11/12 12:37:21;;;;;;;1.13;1.00;;;16.60;71.70;;;;;;5104526;28;20040;-37
2021/11/12 13:25:06;;;;;;;0.70;0.70;;;16.40;72.00;;;;;;5083311;28;20036;-37
2021/11/12 13:27:32;;;;;;;0.65;0.50;;;16.40;72.00;;;;;;5081640;28;20064;-37
2021/11/12 13:29:58;;;;;;;0.73;0.60;;;16.50;72.60;;;;;;5083225;28;20032;-37
2021/11/12 13:32:25;;;;;;;0.50;0.50;;;16.60;72.70;;;;;;5094662;28;20112;-37
2021/11/12 13:34:51;;;;;;;0.50;0.50;;;16.60;72.50;;;;;;5103276;28;20020;-37
2021/11/12 13:37:18;;;;;;;0.95;0.85;;;16.60;72.50;;;;;;5103259;28;20020;-37
2021/11/12 13:39:45;;;;;;;0.65;0.55;;;16.60;72.50;;;;;;5102253;28;20048;-37
2021/11/12 13:42:11;;;;;;;0.80;0.70;;;16.50;72.40;;;;;;5101806;28;20087;-37
2021/11/12 13:44:38;;;;;;;2.05;0.75;;;16.50;72.30;;;;;;5103054;28;20065;-37
2021/11/12 13:47:08;;;;;;;0.68;0.68;;;16.50;72.30;;;;;;5102561;28;20053;-37
2021/11/12 13:49:43;;;;;;;2.45;0.70;;;16.50;72.30;;;;;;5101799;28;20043;-37
2021/11/12 13:52:23;;;;;;;1.00;0.60;;;16.50;72.30;;;;;;5103268;28;20037;-37
2021/11/12 13:54:53;;;;;;;0.80;0.50;;;16.50;72.30;;;;;;5101625;28;20750;-37
2021/11/12 13:57:21;;;;;;;0.50;0.50;;;16.40;72.40;;;;;;5102762;28;20028;-37
2021/11/12 14:00:06;;;;;;;0.60;0.60;;;16.60;72.90;;;;;;5102935;28;20024;-37
2021/11/12 14:03:03;;;;;;;0.68;0.68;;;16.60;72.80;;;;;;5101420;28;20089;-37
2021/11/12 14:05:30;;;;;;;0.57;0.57;;;16.60;72.60;;;;;;5102525;28;20065;-37
2021/11/12 14:08:12;;;;;;;0.63;0.50;;;16.60;72.50;;;;;;5102428;28;20061;-37
2021/11/12 14:10:49;;;;;;;1.20;0.50;;;16.60;72.50;;;;;;5102778;28;20049;-37
2021/11/12 14:13:17;;;;;;;0.40;0.40;;;16.50;72.50;;;;;;5100729;28;20036;-37
2021/11/12 14:16:14;;;;;;;1.23;0.50;;;16.50;72.40;;;;;;5102374;28;20024;-37
2021/11/12 14:21:58;;;;;;;0.75;0.50;;;16.50;72.30;;;;;;5102710;28;20035;-37
2021/11/12 14:38:28;;;;;;;0.88;0.60;;;16.40;71.90;;;;;;5085129;28;20038;-37
2021/11/12 14:41:15;;;;;;;1.50;0.50;;;16.40;72.00;;;;;;5099721;28;20024;-37
2021/11/12 14:46:27;;;;;;;0.95;0.50;;;16.60;72.70;;;;;;5099629;28;20036;-37
2021/11/12 14:49:03;;;;;;;0.60;0.60;;;16.60;72.50;;;;;;5099538;28;20107;-37
2021/11/12 14:54:43;;;;;;;0.47;0.47;;;16.60;72.40;;;;;;5099324;28;20073;-37
2021/11/12 14:57:26;;;;;;;0.43;0.43;;;16.60;72.40;;;;;;5099498;28;20038;-38
2021/11/12 15:00:00;;;;;;;0.45;0.45;;;16.60;72.30;;;;;;5099590;28;20036;-37
2021/11/12 15:02:30;;;;;;;0.60;0.57;;;16.50;72.20;;;;;;5099337;28;20101;-37
2021/11/12 15:04:56;;;;;;;0.52;0.52;;;16.50;72.20;;;;;;5098840;28;20064;-37
2021/11/12 15:07:27;;;;;;;0.47;0.40;;;16.50;72.20;;;;;;5082187;28;20040;-37
2021/11/12 15:09:54;;;;;;;0.50;0.50;;;16.50;72.10;;;;;;5099128;28;20032;-38
2021/11/12 15:12:21;;;;;;;0.93;0.65;;;16.50;72.00;;;;;;5102172;28;20024;-37
2021/11/12 15:14:53;;;;;;;1.17;0.47;;;16.50;72.10;;;;;;5101915;28;20433;-37
2021/11/12 15:17:19;;;;;;;0.68;0.50;;;16.50;72.00;;;;;;5102082;28;20140;-37
2021/11/12 15:19:47;;;;;;;0.52;0.50;;;16.50;72.00;;;;;;5101771;28;20024;-37
2021/11/12 15:25:20;;;;;;;2.60;0.68;;;16.50;72.20;;;;;;5100709;28;20036;-37
2021/11/12 15:27:53;;;;;;;0.47;0.43;;;16.60;72.70;;;;;;5105246;28;20032;-37
2021/11/12 15:30:26;;;;;;;0.90;0.50;;;16.70;72.60;;;;;;5105639;28;20698;-37
2021/11/12 15:32:58;;;;;;;0.50;0.50;;;16.70;72.40;;;;;;5105465;28;20026;-37
2021/11/12 15:35:27;;;;;;;0.50;0.40;;;16.70;72.40;;;;;;5105145;28;20034;-37
2021/11/12 15:40:34;;;;;;;0.40;0.40;;;16.60;72.30;;;;;;5105522;28;20106;-38
2021/11/12 15:48:34;;;;;;;1.75;0.43;;;16.70;72.20;;;;;;5105179;28;20036;-37
2021/11/12 15:56:35;;;;;;;0.38;0.38;;;16.70;72.20;;;;;;5104939;28;20046;-38
2021/11/12 15:59:19;;;;;;;1.35;0.50;;;16.70;72.10;;;;;;5105127;28;20035;-37
2021/11/12 16:10:17;;;;;;;0.60;0.60;;;16.70;72.00;;;;;;5084491;28;20039;-37
2021/11/12 16:17:43;;;;;;;0.50;0.50;;;16.70;72.00;;;;;;5094946;28;20122;-38
2021/11/12 16:25:21;;;;;;;0.70;0.50;;;16.80;72.10;;;;;;5103844;28;20025;-37
2021/11/12 16:27:51;;;;;;;0.60;0.50;;;16.80;72.00;;;;;;5104300;28;20043;-37
2021/11/12 16:30:20;;;;;;;0.60;0.60;;;16.80;72.00;;;;;;5104266;28;20093;-38
2021/11/12 16:35:16;;;;;;;0.55;0.55;;;16.80;72.10;;;;;;5083602;28;20746;-37
2021/11/12 16:37:43;;;;;;;0.68;0.50;;;16.80;72.00;;;;;;5084321;28;20491;-38
2021/11/12 16:40:16;;;;;;;0.50;0.50;;;16.80;72.10;;;;;;5083978;28;20079;-37
2021/11/12 16:45:36;;;;;;;1.05;0.70;;;16.90;72.10;;;;;;5082248;28;20511;-37
2021/11/12 16:48:11;;;;;;;0.60;0.60;;;16.90;72.10;;;;;;5097777;28;20093;-37
2021/11/12 16:54:40;;;;;;;0.52;0.52;;;16.90;72.00;;;;;;5098916;28;20036;-37
2021/11/12 17:06:49;;;;;;;0.75;0.70;;;17.00;72.20;;;;;;5103262;28;20117;-37
2021/11/12 17:16:56;;;;;;;0.40;0.40;;;17.10;72.40;;;;;;5102614;28;20050;-37
2021/11/12 17:48:57;;;;;;;0.90;0.70;;;17.30;73.30;;;;;;5082125;28;20568;-37
2021/11/12 18:01:38;;;;;;;0.50;0.50;;;17.30;73.40;;;;;;5070318;28;20069;-37
2021/11/12 18:05:20;;;;;;;0.50;0.40;;;17.40;73.60;;;;;;5101943;28;20063;-37
2021/11/12 18:10:48;;;;;;;0.60;0.50;;;17.40;73.50;;;;;;5102357;28;20072;-37
2021/11/12 18:24:06;;;;;;;0.80;0.80;;;17.60;73.50;;;;;;5101882;28;20059;-37
2021/11/12 21:48:30;;;;;;;0.60;0.60;;;18.70;70.20;;;;;;5040009;28;20049;-37
2021/11/12 21:50:58;;;;;;;1.13;0.52;;;18.70;70.10;;;;;;5039529;28;20595;-37
2021/11/12 21:53:25;;;;;;;1.45;0.52;;;18.70;70.00;;;;;;5040001;28;20030;-37
2021/11/12 21:55:52;;;;;;;0.88;0.50;;;18.70;69.90;;;;;;5085937;28;20504;-37
2021/11/12 21:58:18;;;;;;;1.73;0.77;;;18.70;69.90;;;;;;5102770;28;20096;-37
2021/11/12 22:00:46;;;;;;;1.48;0.70;;;18.70;69.80;;;;;;5101140;28;20038;-37
2021/11/12 22:03:15;;;;;;;;;;;18.70;69.70;;;;;;5103212;28;20105;-37
2021/11/12 22:05:41;;;;;;;0.60;0.60;;;18.70;69.60;;;;;;5102503;28;19920;-37
2021/11/12 22:08:08;;;;;;;1.02;0.55;;;18.70;69.60;;;;;;5101448;28;20035;-37
2021/11/12 22:10:34;;;;;;;0.70;0.70;;;18.70;69.70;;;;;;5102489;28;20591;-37
2021/11/12 22:13:00;;;;;;;1.38;0.60;;;18.70;69.60;;;;;;5086597;28;20103;-37
2021/11/12 22:15:26;;;;;;;0.70;0.60;;;18.70;69.30;;;;;;5082349;28;20099;-38
2021/11/12 22:17:52;;;;;;;0.80;0.70;;;18.70;69.30;;;;;;5095265;28;20024;-37
2021/11/12 22:20:18;;;;;;;0.70;0.52;;;18.70;69.30;;;;;;5102553;28;20079;-37
2021/11/12 22:22:45;;;;;;;0.60;0.60;;;18.70;69.30;;;;;;5101968;28;20036;-37
2021/11/12 22:25:11;;;;;;;0.87;0.60;;;18.70;69.30;;;;;;5102646;28;20024;-37
2021/11/12 22:27:37;;;;;;;1.02;0.60;;;18.70;69.20;;;;;;5102537;28;20058;-38
2021/11/12 22:30:05;;;;;;;0.75;0.50;;;18.70;69.20;;;;;;5102415;28;20046;-37
2021/11/12 22:32:31;;;;;;;0.70;0.65;;;18.70;69.20;;;;;;5102247;28;20039;-37
2021/11/12 22:34:57;;;;;;;0.70;0.70;;;18.70;69.00;;;;;;5103055;28;20125;-37
2021/11/12 22:37:23;;;;;;;0.70;0.60;;;18.70;69.00;;;;;;5106644;28;20081;-37
2021/11/12 22:39:49;;;;;;;0.70;0.55;;;18.70;68.90;;;;;;5087018;28;20021;-37
2021/11/12 22:42:16;;;;;;;0.63;0.60;;;18.70;68.70;;;;;;5096079;28;20053;-37
2021/11/12 22:44:44;;;;;;;0.73;0.70;;;18.70;68.60;;;;;;5106667;28;20033;-37
2021/11/12 22:47:10;;;;;;;1.10;0.82;;;18.70;68.50;;;;;;5106642;28;20036;-38
2021/11/12 22:49:36;;;;;;;0.77;0.60;;;18.70;68.40;;;;;;5106496;28;20056;-37
2021/11/12 22:52:03;;;;;;;0.80;0.70;;;18.70;68.40;;;;;;5104659;28;20028;-37